sensor_id;sensor_type;location;lat;lon;timestamp;temperature;humidity
15713;DHT22;7957;51.608;6.916;2022-08-03T00:00:54;21.60;99.90
15713;DHT22;7957;51.608;6.916;2022-08-03T00:03:21;21.60;99.90
15713;DHT22;7957;51.608;6.916;2022-08-03T00:05:48;21.60;99.90
15713;DHT22;7957;51.608;6.916;2022-08-03T00:08:17;21.60;99.90
15713;DHT22;7957;51.608;6.916;2022-08-03T00:10:44;21.60;99.90
15713;DHT22;7957;51.608;6.916;2022-08-03T00:13:11;21.50;99.90
15713;DHT22;7957;51.608;6.916;2022-08-03T00:15:39;21.50;99.90
15713;DHT22;7957;51.608;6.916;2022-08-03T00:18:06;21.50;99.90
15713;DHT22;7957;51.608;6.916;2022-08-03T00:20:33;21.50;99.90
15713;DHT22;7957;51.608;6.916;2022-08-03T00:23:00;21.50;99.90
15713;DHT22;7957;51.608;6.916;2022-08-03T00:25:29;21.50;99.90
15713;DHT22;7957;51.608;6.916;2022-08-03T00:27:56;21.40;99.90
15713;DHT22;7957;51.608;6.916;2022-08-03T00:30:23;21.40;99.90
15713;DHT22;7957;51.608;6.916;2022-08-03T00:32:50;21.40;99.90
15713;DHT22;7957;51.608;6.916;2022-08-03T00:35:17;21.40;99.90
15713;DHT22;7957;51.608;6.916;2022-08-03T00:37:44;21.40;99.90
15713;DHT22;7957;51.608;6.916;2022-08-03T00:40:11;21.30;99.90
15713;DHT22;7957;51.608;6.916;2022-08-03T00:42:51;21.30;99.90
15713;DHT22;7957;51.608;6.916;2022-08-03T00:45:20;21.30;99.90
15713;DHT22;7957;51.608;6.916;2022-08-03T00:47:48;21.30;99.90
15713;DHT22;7957;51.608;6.916;2022-08-03T00:50:16;21.30;99.90
15713;DHT22;7957;51.608;6.916;2022-08-03T00:52:44;21.30;99.90
15713;DHT22;7957;51.608;6.916;2022-08-03T00:55:11;21.20;99.90
15713;DHT22;7957;51.608;6.916;2022-08-03T00:57:38;21.20;99.90
15713;DHT22;7957;51.608;6.916;2022-08-03T01:00:08;21.20;99.90
15713;DHT22;7957;51.608;6.916;2022-08-03T01:02:37;21.20;99.90
15713;DHT22;7957;51.608;6.916;2022-08-03T01:05:05;21.20;99.90
15713;DHT22;7957;51.608;6.916;2022-08-03T01:07:40;21.20;99.90
15713;DHT22;7957;51.608;6.916;2022-08-03T01:10:12;21.10;99.90
15713;DHT22;7957;51.608;6.916;2022-08-03T01:12:49;21.10;99.90
15713;DHT22;7957;51.608;6.916;2022-08-03T01:15:25;21.10;99.90
15713;DHT22;7957;51.608;6.916;2022-08-03T01:17:58;21.10;1.00
15713;DHT22;7957;51.608;6.916;2022-08-03T01:20:30;21.10;99.90
15713;DHT22;7957;51.608;6.916;2022-08-03T01:23:36;21.10;99.90
15713;DHT22;7957;51.608;6.916;2022-08-03T01:26:35;21.00;1.00
15713;DHT22;7957;51.608;6.916;2022-08-03T01:29:12;21.00;1.00
15713;DHT22;7957;51.608;6.916;2022-08-03T01:31:53;21.00;1.00
15713;DHT22;7957;51.608;6.916;2022-08-03T01:34:27;21.00;1.00
15713;DHT22;7957;51.608;6.916;2022-08-03T01:36:56;21.00;1.00
15713;DHT22;7957;51.608;6.916;2022-08-03T01:39:25;21.00;1.00
15713;DHT22;7957;51.608;6.916;2022-08-03T01:41:57;21.00;1.00
15713;DHT22;7957;51.608;6.916;2022-08-03T01:44:27;20.90;1.00
15713;DHT22;7957;51.608;6.916;2022-08-03T01:46:58;20.90;1.00
15713;DHT22;7957;51.608;6.916;2022-08-03T01:49:26;20.90;1.00
15713;DHT22;7957;51.608;6.916;2022-08-03T01:51:54;20.90;1.00
15713;DHT22;7957;51.608;6.916;2022-08-03T01:54:23;20.90;1.00
15713;DHT22;7957;51.608;6.916;2022-08-03T01:56:53;20.90;1.00
15713;DHT22;7957;51.608;6.916;2022-08-03T01:59:21;20.90;1.00
15713;DHT22;7957;51.608;6.916;2022-08-03T02:01:49;20.80;1.00
15713;DHT22;7957;51.608;6.916;2022-08-03T02:04:18;20.80;1.00
15713;DHT22;7957;51.608;6.916;2022-08-03T02:06:46;20.80;1.00
15713;DHT22;7957;51.608;6.916;2022-08-03T02:09:15;20.80;1.00
15713;DHT22;7957;51.608;6.916;2022-08-03T02:11:44;20.80;1.00
15713;DHT22;7957;51.608;6.916;2022-08-03T02:14:13;20.80;1.00
15713;DHT22;7957;51.608;6.916;2022-08-03T02:16:42;20.70;1.00
15713;DHT22;7957;51.608;6.916;2022-08-03T02:19:10;20.70;1.00
15713;DHT22;7957;51.608;6.916;2022-08-03T02:21:40;20.70;1.00
15713;DHT22;7957;51.608;6.916;2022-08-03T02:24:10;20.70;1.00
15713;DHT22;7957;51.608;6.916;2022-08-03T02:26:38;20.70;1.00
15713;DHT22;7957;51.608;6.916;2022-08-03T02:29:11;20.60;1.00
15713;DHT22;7957;51.608;6.916;2022-08-03T02:31:40;20.60;1.00
15713;DHT22;7957;51.608;6.916;2022-08-03T02:34:12;20.60;1.00
15713;DHT22;7957;51.608;6.916;2022-08-03T02:36:41;20.60;1.00
15713;DHT22;7957;51.608;6.916;2022-08-03T02:39:14;20.60;1.00
15713;DHT22;7957;51.608;6.916;2022-08-03T02:41:45;20.60;1.00
15713;DHT22;7957;51.608;6.916;2022-08-03T02:44:13;20.60;1.00
15713;DHT22;7957;51.608;6.916;2022-08-03T02:46:44;20.60;1.00
15713;DHT22;7957;51.608;6.916;2022-08-03T02:49:14;20.60;1.00
15713;DHT22;7957;51.608;6.916;2022-08-03T02:51:46;20.60;1.00
15713;DHT22;7957;51.608;6.916;2022-08-03T02:54:16;20.60;1.00
15713;DHT22;7957;51.608;6.916;2022-08-03T02:56:45;20.50;1.00
15713;DHT22;7957;51.608;6.916;2022-08-03T02:59:14;20.50;1.00
15713;DHT22;7957;51.608;6.916;2022-08-03T03:01:41;20.50;1.00
15713;DHT22;7957;51.608;6.916;2022-08-03T03:04:10;20.50;1.00
15713;DHT22;7957;51.608;6.916;2022-08-03T03:06:38;20.50;1.00
15713;DHT22;7957;51.608;6.916;2022-08-03T03:09:07;20.50;1.00
15713;DHT22;7957;51.608;6.916;2022-08-03T03:11:37;20.40;1.00
15713;DHT22;7957;51.608;6.916;2022-08-03T03:14:04;20.40;1.00
15713;DHT22;7957;51.608;6.916;2022-08-03T03:16:32;20.40;1.00
15713;DHT22;7957;51.608;6.916;2022-08-03T03:19:01;20.40;1.00
15713;DHT22;7957;51.608;6.916;2022-08-03T03:21:28;20.40;1.00
15713;DHT22;7957;51.608;6.916;2022-08-03T03:23:56;20.40;1.00
15713;DHT22;7957;51.608;6.916;2022-08-03T03:26:27;20.40;1.00
15713;DHT22;7957;51.608;6.916;2022-08-03T03:28:54;20.40;1.00
15713;DHT22;7957;51.608;6.916;2022-08-03T03:31:21;20.30;1.00
15713;DHT22;7957;51.608;6.916;2022-08-03T03:33:48;20.30;1.00
15713;DHT22;7957;51.608;6.916;2022-08-03T03:36:15;20.30;1.00
15713;DHT22;7957;51.608;6.916;2022-08-03T03:38:43;20.30;1.00
15713;DHT22;7957;51.608;6.916;2022-08-03T03:41:09;20.30;1.00
15713;DHT22;7957;51.608;6.916;2022-08-03T03:43:38;20.30;1.00
15713;DHT22;7957;51.608;6.916;2022-08-03T03:46:05;20.30;1.00
15713;DHT22;7957;51.608;6.916;2022-08-03T03:48:32;20.20;1.00
15713;DHT22;7957;51.608;6.916;2022-08-03T03:51:00;20.20;1.00
15713;DHT22;7957;51.608;6.916;2022-08-03T03:53:27;20.20;1.00
15713;DHT22;7957;51.608;6.916;2022-08-03T03:55:54;20.20;1.00
15713;DHT22;7957;51.608;6.916;2022-08-03T03:58:21;20.20;1.00
15713;DHT22;7957;51.608;6.916;2022-08-03T04:00:49;20.20;1.00
15713;DHT22;7957;51.608;6.916;2022-08-03T04:03:18;20.20;1.00
15713;DHT22;7957;51.608;6.916;2022-08-03T04:05:45;20.20;1.00
15713;DHT22;7957;51.608;6.916;2022-08-03T04:08:29;20.10;1.00
15713;DHT22;7957;51.608;6.916;2022-08-03T04:11:17;20.10;1.00
15713;DHT22;7957;51.608;6.916;2022-08-03T04:13:49;20.10;1.00
15713;DHT22;7957;51.608;6.916;2022-08-03T04:16:21;20.10;1.00
15713;DHT22;7957;51.608;6.916;2022-08-03T04:18:52;20.10;1.00
15713;DHT22;7957;51.608;6.916;2022-08-03T04:21:21;20.10;1.00
15713;DHT22;7957;51.608;6.916;2022-08-03T04:23:52;20.10;1.00
15713;DHT22;7957;51.608;6.916;2022-08-03T04:26:21;20.10;1.00
15713;DHT22;7957;51.608;6.916;2022-08-03T04:28:48;20.10;1.00
15713;DHT22;7957;51.608;6.916;2022-08-03T04:31:21;20.00;1.00
15713;DHT22;7957;51.608;6.916;2022-08-03T04:33:49;20.00;1.00
15713;DHT22;7957;51.608;6.916;2022-08-03T04:36:20;20.00;1.00
15713;DHT22;7957;51.608;6.916;2022-08-03T04:39:00;20.00;1.00
15713;DHT22;7957;51.608;6.916;2022-08-03T04:41:29;20.00;1.00
15713;DHT22;7957;51.608;6.916;2022-08-03T04:43:58;20.00;1.00
15713;DHT22;7957;51.608;6.916;2022-08-03T04:46:30;20.10;1.00
15713;DHT22;7957;51.608;6.916;2022-08-03T04:48:58;20.00;1.00
15713;DHT22;7957;51.608;6.916;2022-08-03T04:51:27;20.10;1.00
15713;DHT22;7957;51.608;6.916;2022-08-03T04:53:55;20.10;1.00
15713;DHT22;7957;51.608;6.916;2022-08-03T04:56:23;20.10;1.00
15713;DHT22;7957;51.608;6.916;2022-08-03T04:58:50;20.10;1.00
15713;DHT22;7957;51.608;6.916;2022-08-03T05:01:18;20.10;1.00
15713;DHT22;7957;51.608;6.916;2022-08-03T05:03:48;20.10;1.00
15713;DHT22;7957;51.608;6.916;2022-08-03T05:06:16;20.10;1.00
15713;DHT22;7957;51.608;6.916;2022-08-03T05:08:42;20.10;1.00
15713;DHT22;7957;51.608;6.916;2022-08-03T05:11:09;20.10;1.00
15713;DHT22;7957;51.608;6.916;2022-08-03T05:13:36;20.20;1.00
15713;DHT22;7957;51.608;6.916;2022-08-03T05:16:04;20.20;1.00
15713;DHT22;7957;51.608;6.916;2022-08-03T05:18:31;20.20;1.00
15713;DHT22;7957;51.608;6.916;2022-08-03T05:21:01;20.20;1.00
15713;DHT22;7957;51.608;6.916;2022-08-03T05:23:29;20.30;1.00
15713;DHT22;7957;51.608;6.916;2022-08-03T05:25:56;20.30;1.00
15713;DHT22;7957;51.608;6.916;2022-08-03T05:28:23;20.30;1.00
15713;DHT22;7957;51.608;6.916;2022-08-03T05:30:50;20.30;1.00
15713;DHT22;7957;51.608;6.916;2022-08-03T05:33:18;20.30;1.00
15713;DHT22;7957;51.608;6.916;2022-08-03T05:35:45;20.30;1.00
15713;DHT22;7957;51.608;6.916;2022-08-03T05:38:14;20.30;1.00
15713;DHT22;7957;51.608;6.916;2022-08-03T05:40:40;20.40;1.00
15713;DHT22;7957;51.608;6.916;2022-08-03T05:43:07;20.40;1.00
15713;DHT22;7957;51.608;6.916;2022-08-03T05:45:35;20.40;1.00
15713;DHT22;7957;51.608;6.916;2022-08-03T05:48:03;20.50;1.00
15713;DHT22;7957;51.608;6.916;2022-08-03T05:50:30;20.50;1.00
15713;DHT22;7957;51.608;6.916;2022-08-03T05:52:57;20.50;1.00
15713;DHT22;7957;51.608;6.916;2022-08-03T05:55:25;20.60;1.00
15713;DHT22;7957;51.608;6.916;2022-08-03T05:57:52;20.60;1.00
15713;DHT22;7957;51.608;6.916;2022-08-03T06:00:19;20.70;1.00
15713;DHT22;7957;51.608;6.916;2022-08-03T06:02:45;20.70;1.00
15713;DHT22;7957;51.608;6.916;2022-08-03T06:05:12;20.70;1.00
15713;DHT22;7957;51.608;6.916;2022-08-03T06:07:39;20.80;1.00
15713;DHT22;7957;51.608;6.916;2022-08-03T06:10:07;20.80;1.00
15713;DHT22;7957;51.608;6.916;2022-08-03T06:12:35;20.80;1.00
15713;DHT22;7957;51.608;6.916;2022-08-03T06:15:06;20.90;1.00
15713;DHT22;7957;51.608;6.916;2022-08-03T06:17:33;20.90;1.00
15713;DHT22;7957;51.608;6.916;2022-08-03T06:20:00;20.90;1.00
15713;DHT22;7957;51.608;6.916;2022-08-03T06:22:28;21.00;1.00
15713;DHT22;7957;51.608;6.916;2022-08-03T06:24:55;21.00;1.00
15713;DHT22;7957;51.608;6.916;2022-08-03T06:27:23;21.00;1.00
15713;DHT22;7957;51.608;6.916;2022-08-03T06:29:51;21.00;1.00
15713;DHT22;7957;51.608;6.916;2022-08-03T06:32:18;21.10;1.00
15713;DHT22;7957;51.608;6.916;2022-08-03T06:34:47;21.10;1.00
15713;DHT22;7957;51.608;6.916;2022-08-03T06:37:14;21.10;1.00
15713;DHT22;7957;51.608;6.916;2022-08-03T06:39:40;21.20;1.00
15713;DHT22;7957;51.608;6.916;2022-08-03T06:42:07;21.20;1.00
15713;DHT22;7957;51.608;6.916;2022-08-03T06:44:34;21.30;1.00
15713;DHT22;7957;51.608;6.916;2022-08-03T06:47:04;21.30;1.00
15713;DHT22;7957;51.608;6.916;2022-08-03T06:49:31;21.30;1.00
15713;DHT22;7957;51.608;6.916;2022-08-03T06:51:58;21.30;1.00
15713;DHT22;7957;51.608;6.916;2022-08-03T06:54:25;21.40;1.00
15713;DHT22;7957;51.608;6.916;2022-08-03T06:56:52;21.40;1.00
15713;DHT22;7957;51.608;6.916;2022-08-03T06:59:19;21.50;1.00
15713;DHT22;7957;51.608;6.916;2022-08-03T07:01:46;21.50;1.00
15713;DHT22;7957;51.608;6.916;2022-08-03T07:04:14;21.50;1.00
15713;DHT22;7957;51.608;6.916;2022-08-03T07:06:41;21.50;1.00
15713;DHT22;7957;51.608;6.916;2022-08-03T07:09:08;21.60;1.00
15713;DHT22;7957;51.608;6.916;2022-08-03T07:11:36;21.60;1.00
15713;DHT22;7957;51.608;6.916;2022-08-03T07:14:02;21.70;1.00
15713;DHT22;7957;51.608;6.916;2022-08-03T07:16:29;21.70;1.00
15713;DHT22;7957;51.608;6.916;2022-08-03T07:18:56;21.70;1.00
15713;DHT22;7957;51.608;6.916;2022-08-03T07:21:24;21.80;1.00
15713;DHT22;7957;51.608;6.916;2022-08-03T07:23:51;21.90;1.00
15713;DHT22;7957;51.608;6.916;2022-08-03T07:26:18;21.90;1.00
15713;DHT22;7957;51.608;6.916;2022-08-03T07:28:45;22.00;1.00
15713;DHT22;7957;51.608;6.916;2022-08-03T07:31:12;22.00;1.00
15713;DHT22;7957;51.608;6.916;2022-08-03T07:33:39;22.10;1.00
15713;DHT22;7957;51.608;6.916;2022-08-03T07:36:06;22.20;1.00
15713;DHT22;7957;51.608;6.916;2022-08-03T07:38:35;22.30;99.90
15713;DHT22;7957;51.608;6.916;2022-08-03T07:41:02;22.40;99.90
15713;DHT22;7957;51.608;6.916;2022-08-03T07:43:29;22.60;99.90
15713;DHT22;7957;51.608;6.916;2022-08-03T07:45:56;22.70;99.90
15713;DHT22;7957;51.608;6.916;2022-08-03T07:48:23;22.80;99.90
15713;DHT22;7957;51.608;6.916;2022-08-03T07:50:50;23.00;53.10
15713;DHT22;7957;51.608;6.916;2022-08-03T07:53:17;23.10;1.00
15713;DHT22;7957;51.608;6.916;2022-08-03T07:55:45;23.20;1.00
15713;DHT22;7957;51.608;6.916;2022-08-03T07:58:12;23.30;1.00
15713;DHT22;7957;51.608;6.916;2022-08-03T08:00:42;23.40;1.00
15713;DHT22;7957;51.608;6.916;2022-08-03T08:03:10;23.50;1.00
15713;DHT22;7957;51.608;6.916;2022-08-03T08:05:37;23.60;1.00
15713;DHT22;7957;51.608;6.916;2022-08-03T08:08:04;23.70;1.00
15713;DHT22;7957;51.608;6.916;2022-08-03T08:10:31;23.70;1.00
15713;DHT22;7957;51.608;6.916;2022-08-03T08:12:59;23.80;1.00
15713;DHT22;7957;51.608;6.916;2022-08-03T08:15:27;23.80;1.00
15713;DHT22;7957;51.608;6.916;2022-08-03T08:17:55;23.90;1.00
15713;DHT22;7957;51.608;6.916;2022-08-03T08:20:24;24.00;1.00
15713;DHT22;7957;51.608;6.916;2022-08-03T08:22:52;24.00;1.00
15713;DHT22;7957;51.608;6.916;2022-08-03T08:25:20;24.00;1.00
15713;DHT22;7957;51.608;6.916;2022-08-03T08:27:48;24.10;1.00
15713;DHT22;7957;51.608;6.916;2022-08-03T08:30:18;24.20;1.00
15713;DHT22;7957;51.608;6.916;2022-08-03T08:32:45;24.20;1.00
15713;DHT22;7957;51.608;6.916;2022-08-03T08:35:13;24.30;1.00
15713;DHT22;7957;51.608;6.916;2022-08-03T08:37:40;24.40;1.00
15713;DHT22;7957;51.608;6.916;2022-08-03T08:40:09;24.40;99.90
15713;DHT22;7957;51.608;6.916;2022-08-03T08:42:39;24.50;99.90
15713;DHT22;7957;51.608;6.916;2022-08-03T08:45:07;24.50;99.90
15713;DHT22;7957;51.608;6.916;2022-08-03T08:47:37;24.60;99.90
15713;DHT22;7957;51.608;6.916;2022-08-03T08:50:06;24.70;99.90
15713;DHT22;7957;51.608;6.916;2022-08-03T08:52:34;24.80;99.90
15713;DHT22;7957;51.608;6.916;2022-08-03T08:55:04;24.90;99.90
15713;DHT22;7957;51.608;6.916;2022-08-03T08:57:33;24.90;99.90
15713;DHT22;7957;51.608;6.916;2022-08-03T09:00:03;25.00;99.90
15713;DHT22;7957;51.608;6.916;2022-08-03T09:02:31;25.10;99.90
15713;DHT22;7957;51.608;6.916;2022-08-03T09:04:59;25.20;99.90
15713;DHT22;7957;51.608;6.916;2022-08-03T09:07:27;25.20;99.90
15713;DHT22;7957;51.608;6.916;2022-08-03T09:09:54;25.20;99.90
15713;DHT22;7957;51.608;6.916;2022-08-03T09:12:21;25.30;99.90
15713;DHT22;7957;51.608;6.916;2022-08-03T09:14:48;25.40;99.90
15713;DHT22;7957;51.608;6.916;2022-08-03T09:17:15;25.50;99.90
15713;DHT22;7957;51.608;6.916;2022-08-03T09:19:42;25.60;99.90
15713;DHT22;7957;51.608;6.916;2022-08-03T09:22:30;25.60;99.90
15713;DHT22;7957;51.608;6.916;2022-08-03T09:25:01;25.70;99.90
15713;DHT22;7957;51.608;6.916;2022-08-03T09:27:28;25.90;99.90
15713;DHT22;7957;51.608;6.916;2022-08-03T09:30:12;26.00;99.90
15713;DHT22;7957;51.608;6.916;2022-08-03T09:32:39;26.10;99.90
15713;DHT22;7957;51.608;6.916;2022-08-03T09:35:07;26.20;89.90
15713;DHT22;7957;51.608;6.916;2022-08-03T09:37:35;26.30;54.00
15713;DHT22;7957;51.608;6.916;2022-08-03T09:40:03;26.40;48.60
15713;DHT22;7957;51.608;6.916;2022-08-03T09:42:30;26.50;34.40
15713;DHT22;7957;51.608;6.916;2022-08-03T09:44:59;26.60;1.00
15713;DHT22;7957;51.608;6.916;2022-08-03T09:47:28;26.80;1.00
15713;DHT22;7957;51.608;6.916;2022-08-03T09:49:57;26.90;1.00
15713;DHT22;7957;51.608;6.916;2022-08-03T09:52:30;27.00;1.00
15713;DHT22;7957;51.608;6.916;2022-08-03T09:54:59;27.10;1.00
15713;DHT22;7957;51.608;6.916;2022-08-03T09:57:27;27.30;1.00
15713;DHT22;7957;51.608;6.916;2022-08-03T10:00:06;27.50;1.00
15713;DHT22;7957;51.608;6.916;2022-08-03T10:02:35;27.60;1.00
15713;DHT22;7957;51.608;6.916;2022-08-03T10:05:03;27.70;1.00
15713;DHT22;7957;51.608;6.916;2022-08-03T10:07:42;27.90;1.00
15713;DHT22;7957;51.608;6.916;2022-08-03T10:10:11;28.10;1.00
15713;DHT22;7957;51.608;6.916;2022-08-03T10:12:39;28.30;1.00
15713;DHT22;7957;51.608;6.916;2022-08-03T10:15:07;28.50;1.00
15713;DHT22;7957;51.608;6.916;2022-08-03T10:17:34;28.60;1.00
15713;DHT22;7957;51.608;6.916;2022-08-03T10:20:03;28.80;1.00
15713;DHT22;7957;51.608;6.916;2022-08-03T10:22:33;29.00;1.00
15713;DHT22;7957;51.608;6.916;2022-08-03T10:25:03;29.10;1.00
15713;DHT22;7957;51.608;6.916;2022-08-03T10:27:36;29.20;1.00
15713;DHT22;7957;51.608;6.916;2022-08-03T10:30:05;29.40;1.00
15713;DHT22;7957;51.608;6.916;2022-08-03T10:32:35;29.50;1.00
15713;DHT22;7957;51.608;6.916;2022-08-03T10:35:04;29.70;1.00
15713;DHT22;7957;51.608;6.916;2022-08-03T10:37:35;29.90;1.00
15713;DHT22;7957;51.608;6.916;2022-08-03T10:40:06;30.10;1.00
15713;DHT22;7957;51.608;6.916;2022-08-03T10:42:36;30.20;1.00
15713;DHT22;7957;51.608;6.916;2022-08-03T10:45:05;30.40;1.00
15713;DHT22;7957;51.608;6.916;2022-08-03T10:47:34;30.40;1.00
15713;DHT22;7957;51.608;6.916;2022-08-03T10:50:01;30.50;1.00
15713;DHT22;7957;51.608;6.916;2022-08-03T10:52:29;30.60;1.00
15713;DHT22;7957;51.608;6.916;2022-08-03T10:54:56;30.70;1.00
15713;DHT22;7957;51.608;6.916;2022-08-03T10:57:52;30.90;1.00
15713;DHT22;7957;51.608;6.916;2022-08-03T11:00:20;31.00;1.00
15713;DHT22;7957;51.608;6.916;2022-08-03T11:03:14;31.10;1.00
15713;DHT22;7957;51.608;6.916;2022-08-03T11:05:44;31.30;1.00
15713;DHT22;7957;51.608;6.916;2022-08-03T11:08:25;31.40;1.00
15713;DHT22;7957;51.608;6.916;2022-08-03T11:10:54;31.60;1.00
15713;DHT22;7957;51.608;6.916;2022-08-03T11:13:23;31.90;1.00
15713;DHT22;7957;51.608;6.916;2022-08-03T11:15:52;32.10;1.00
15713;DHT22;7957;51.608;6.916;2022-08-03T11:18:19;32.10;1.00
15713;DHT22;7957;51.608;6.916;2022-08-03T11:20:49;32.10;1.00
15713;DHT22;7957;51.608;6.916;2022-08-03T11:23:18;32.20;1.00
15713;DHT22;7957;51.608;6.916;2022-08-03T11:26:14;32.50;1.00
15713;DHT22;7957;51.608;6.916;2022-08-03T11:28:44;32.80;1.00
15713;DHT22;7957;51.608;6.916;2022-08-03T11:31:43;33.10;1.00
15713;DHT22;7957;51.608;6.916;2022-08-03T11:34:13;33.20;1.00
15713;DHT22;7957;51.608;6.916;2022-08-03T11:37:18;33.20;1.00
15713;DHT22;7957;51.608;6.916;2022-08-03T11:39:46;33.30;1.00
15713;DHT22;7957;51.608;6.916;2022-08-03T11:42:42;33.40;1.00
15713;DHT22;7957;51.608;6.916;2022-08-03T11:45:14;33.60;1.00
15713;DHT22;7957;51.608;6.916;2022-08-03T11:47:41;33.90;1.00
15713;DHT22;7957;51.608;6.916;2022-08-03T11:50:09;34.20;1.00
15713;DHT22;7957;51.608;6.916;2022-08-03T11:52:40;34.30;1.00
15713;DHT22;7957;51.608;6.916;2022-08-03T11:55:16;34.60;1.00
15713;DHT22;7957;51.608;6.916;2022-08-03T11:57:45;34.80;1.00
15713;DHT22;7957;51.608;6.916;2022-08-03T12:00:27;34.90;1.00
15713;DHT22;7957;51.608;6.916;2022-08-03T12:02:55;35.00;1.00
15713;DHT22;7957;51.608;6.916;2022-08-03T12:08:18;35.60;1.00
15713;DHT22;7957;51.608;6.916;2022-08-03T12:10:56;35.70;1.00
15713;DHT22;7957;51.608;6.916;2022-08-03T12:13:24;35.80;1.00
15713;DHT22;7957;51.608;6.916;2022-08-03T12:15:54;36.00;1.00
15713;DHT22;7957;51.608;6.916;2022-08-03T12:18:22;36.30;1.00
15713;DHT22;7957;51.608;6.916;2022-08-03T12:20:50;36.50;1.00
15713;DHT22;7957;51.608;6.916;2022-08-03T12:23:18;36.40;1.00
15713;DHT22;7957;51.608;6.916;2022-08-03T12:25:46;36.50;1.00
15713;DHT22;7957;51.608;6.916;2022-08-03T12:28:16;36.70;1.00
15713;DHT22;7957;51.608;6.916;2022-08-03T12:30:46;36.70;1.00
15713;DHT22;7957;51.608;6.916;2022-08-03T12:33:16;36.80;1.00
15713;DHT22;7957;51.608;6.916;2022-08-03T12:35:45;36.90;1.00
15713;DHT22;7957;51.608;6.916;2022-08-03T12:38:12;36.90;1.00
15713;DHT22;7957;51.608;6.916;2022-08-03T12:40:40;36.80;1.00
15713;DHT22;7957;51.608;6.916;2022-08-03T12:43:10;36.70;1.00
15713;DHT22;7957;51.608;6.916;2022-08-03T12:45:37;36.60;1.00
15713;DHT22;7957;51.608;6.916;2022-08-03T12:48:08;36.60;1.00
15713;DHT22;7957;51.608;6.916;2022-08-03T12:50:37;36.60;1.00
15713;DHT22;7957;51.608;6.916;2022-08-03T12:53:07;36.80;1.00
15713;DHT22;7957;51.608;6.916;2022-08-03T12:55:35;37.00;1.00
15713;DHT22;7957;51.608;6.916;2022-08-03T12:58:04;37.00;99.90
15713;DHT22;7957;51.608;6.916;2022-08-03T13:00:31;37.00;99.90
15713;DHT22;7957;51.608;6.916;2022-08-03T13:02:59;37.00;99.90
15713;DHT22;7957;51.608;6.916;2022-08-03T13:05:28;37.10;99.90
15713;DHT22;7957;51.608;6.916;2022-08-03T13:07:57;37.10;99.90
15713;DHT22;7957;51.608;6.916;2022-08-03T13:10:28;37.10;99.90
15713;DHT22;7957;51.608;6.916;2022-08-03T13:12:56;37.10;99.90
15713;DHT22;7957;51.608;6.916;2022-08-03T13:15:25;37.00;99.90
15713;DHT22;7957;51.608;6.916;2022-08-03T13:17:53;37.00;99.90
15713;DHT22;7957;51.608;6.916;2022-08-03T13:20:20;36.90;99.90
15713;DHT22;7957;51.608;6.916;2022-08-03T13:22:47;36.90;99.90
15713;DHT22;7957;51.608;6.916;2022-08-03T13:25:15;37.00;99.90
15713;DHT22;7957;51.608;6.916;2022-08-03T13:27:42;36.90;99.90
15713;DHT22;7957;51.608;6.916;2022-08-03T13:30:10;36.80;99.90
15713;DHT22;7957;51.608;6.916;2022-08-03T13:32:37;36.70;99.90
15713;DHT22;7957;51.608;6.916;2022-08-03T13:35:05;36.70;99.90
15713;DHT22;7957;51.608;6.916;2022-08-03T13:37:32;36.50;99.90
15713;DHT22;7957;51.608;6.916;2022-08-03T13:40:00;36.50;99.90
15713;DHT22;7957;51.608;6.916;2022-08-03T13:42:30;36.60;99.90
15713;DHT22;7957;51.608;6.916;2022-08-03T13:44:59;36.50;99.90
15713;DHT22;7957;51.608;6.916;2022-08-03T13:47:26;36.40;99.90
15713;DHT22;7957;51.608;6.916;2022-08-03T13:49:53;36.50;99.90
15713;DHT22;7957;51.608;6.916;2022-08-03T13:52:20;36.50;99.90
15713;DHT22;7957;51.608;6.916;2022-08-03T13:54:47;36.50;99.90
15713;DHT22;7957;51.608;6.916;2022-08-03T13:57:13;36.50;99.90
15713;DHT22;7957;51.608;6.916;2022-08-03T13:59:42;36.60;99.90
15713;DHT22;7957;51.608;6.916;2022-08-03T14:02:09;36.60;99.90
15713;DHT22;7957;51.608;6.916;2022-08-03T14:04:39;36.50;99.90
15713;DHT22;7957;51.608;6.916;2022-08-03T14:07:06;36.60;99.90
15713;DHT22;7957;51.608;6.916;2022-08-03T14:09:33;36.60;99.90
15713;DHT22;7957;51.608;6.916;2022-08-03T14:12:00;36.70;99.90
15713;DHT22;7957;51.608;6.916;2022-08-03T14:14:27;36.60;99.90
15713;DHT22;7957;51.608;6.916;2022-08-03T14:16:55;36.50;99.90
15713;DHT22;7957;51.608;6.916;2022-08-03T14:19:22;36.50;99.90
15713;DHT22;7957;51.608;6.916;2022-08-03T14:21:49;36.30;99.90
15713;DHT22;7957;51.608;6.916;2022-08-03T14:24:16;36.20;99.90
15713;DHT22;7957;51.608;6.916;2022-08-03T14:26:43;35.90;99.90
15713;DHT22;7957;51.608;6.916;2022-08-03T14:29:10;35.70;99.90
15713;DHT22;7957;51.608;6.916;2022-08-03T14:31:37;35.60;99.90
15713;DHT22;7957;51.608;6.916;2022-08-03T14:34:05;35.50;99.90
15713;DHT22;7957;51.608;6.916;2022-08-03T14:36:32;35.40;99.90
15713;DHT22;7957;51.608;6.916;2022-08-03T14:38:59;35.20;99.90
15713;DHT22;7957;51.608;6.916;2022-08-03T14:41:26;35.10;99.90
15713;DHT22;7957;51.608;6.916;2022-08-03T14:43:53;35.00;99.90
15713;DHT22;7957;51.608;6.916;2022-08-03T14:46:21;34.70;99.90
15713;DHT22;7957;51.608;6.916;2022-08-03T14:48:48;34.60;99.90
15713;DHT22;7957;51.608;6.916;2022-08-03T14:51:16;34.50;99.90
15713;DHT22;7957;51.608;6.916;2022-08-03T14:53:43;34.40;99.90
15713;DHT22;7957;51.608;6.916;2022-08-03T14:56:11;34.30;99.90
15713;DHT22;7957;51.608;6.916;2022-08-03T14:58:38;34.20;99.90
15713;DHT22;7957;51.608;6.916;2022-08-03T15:01:05;34.10;99.90
15713;DHT22;7957;51.608;6.916;2022-08-03T15:03:33;34.00;99.90
15713;DHT22;7957;51.608;6.916;2022-08-03T15:06:00;33.90;99.90
15713;DHT22;7957;51.608;6.916;2022-08-03T15:08:28;33.90;99.90
15713;DHT22;7957;51.608;6.916;2022-08-03T15:10:55;33.80;99.90
15713;DHT22;7957;51.608;6.916;2022-08-03T15:13:22;33.70;99.90
15713;DHT22;7957;51.608;6.916;2022-08-03T15:15:49;33.70;99.90
15713;DHT22;7957;51.608;6.916;2022-08-03T15:18:17;33.60;99.90
15713;DHT22;7957;51.608;6.916;2022-08-03T15:20:44;33.70;99.90
15713;DHT22;7957;51.608;6.916;2022-08-03T15:23:14;33.70;99.90
15713;DHT22;7957;51.608;6.916;2022-08-03T15:25:43;33.70;99.90
15713;DHT22;7957;51.608;6.916;2022-08-03T15:28:10;33.70;99.90
15713;DHT22;7957;51.608;6.916;2022-08-03T15:30:37;33.80;99.90
15713;DHT22;7957;51.608;6.916;2022-08-03T15:33:04;33.90;99.90
15713;DHT22;7957;51.608;6.916;2022-08-03T15:35:31;33.80;99.90
15713;DHT22;7957;51.608;6.916;2022-08-03T15:37:58;33.70;99.90
15713;DHT22;7957;51.608;6.916;2022-08-03T15:40:25;33.80;99.90
15713;DHT22;7957;51.608;6.916;2022-08-03T15:42:53;33.70;99.90
15713;DHT22;7957;51.608;6.916;2022-08-03T15:45:20;33.70;99.90
15713;DHT22;7957;51.608;6.916;2022-08-03T15:47:47;33.70;99.90
15713;DHT22;7957;51.608;6.916;2022-08-03T15:50:14;33.60;99.90
15713;DHT22;7957;51.608;6.916;2022-08-03T15:52:43;33.60;99.90
15713;DHT22;7957;51.608;6.916;2022-08-03T15:55:11;33.50;99.90
15713;DHT22;7957;51.608;6.916;2022-08-03T15:57:38;33.30;99.90
15713;DHT22;7957;51.608;6.916;2022-08-03T16:00:08;33.30;99.90
15713;DHT22;7957;51.608;6.916;2022-08-03T16:02:35;33.20;99.90
15713;DHT22;7957;51.608;6.916;2022-08-03T16:05:02;33.00;99.90
15713;DHT22;7957;51.608;6.916;2022-08-03T16:07:29;33.00;99.90
15713;DHT22;7957;51.608;6.916;2022-08-03T16:10:08;32.80;99.90